sensor_id;sensor_type;location;lat;lon;timestamp;temperature;humidity
6756;DHT22;3415;51.148;7.014;2022-11-20T00:02:20;3.10;1.00
6756;DHT22;3415;51.148;7.014;2022-11-20T00:04:47;3.10;1.00
6756;DHT22;3415;51.148;7.014;2022-11-20T00:07:15;3.10;1.00
6756;DHT22;3415;51.148;7.014;2022-11-20T00:09:42;3.10;1.00
6756;DHT22;3415;51.148;7.014;2022-11-20T00:12:09;3.10;1.00
6756;DHT22;3415;51.148;7.014;2022-11-20T00:14:36;3.20;1.00
6756;DHT22;3415;51.148;7.014;2022-11-20T00:17:03;3.20;1.00
6756;DHT22;3415;51.148;7.014;2022-11-20T00:19:30;3.10;1.00
6756;DHT22;3415;51.148;7.014;2022-11-20T00:21:57;3.20;1.00
6756;DHT22;3415;51.148;7.014;2022-11-20T00:24:25;3.10;1.00
6756;DHT22;3415;51.148;7.014;2022-11-20T00:26:52;3.10;1.00
6756;DHT22;3415;51.148;7.014;2022-11-20T00:29:19;3.10;1.00
6756;DHT22;3415;51.148;7.014;2022-11-20T00:31:46;3.20;1.00
6756;DHT22;3415;51.148;7.014;2022-11-20T00:34:13;3.10;1.00
6756;DHT22;3415;51.148;7.014;2022-11-20T00:36:40;3.10;1.00
6756;DHT22;3415;51.148;7.014;2022-11-20T00:41:36;3.10;1.00
6756;DHT22;3415;51.148;7.014;2022-11-20T00:44:03;3.10;1.00
6756;DHT22;3415;51.148;7.014;2022-11-20T00:46:30;3.10;1.00
6756;DHT22;3415;51.148;7.014;2022-11-20T00:48:57;3.20;1.00
6756;DHT22;3415;51.148;7.014;2022-11-20T00:51:25;3.20;1.00
6756;DHT22;3415;51.148;7.014;2022-11-20T00:53:55;3.20;1.00
6756;DHT22;3415;51.148;7.014;2022-11-20T00:56:23;3.20;1.00
6756;DHT22;3415;51.148;7.014;2022-11-20T00:58:51;3.20;1.00
6756;DHT22;3415;51.148;7.014;2022-11-20T01:01:20;3.10;1.00
6756;DHT22;3415;51.148;7.014;2022-11-20T01:03:50;3.00;1.00
6756;DHT22;3415;51.148;7.014;2022-11-20T01:06:20;3.10;1.00
6756;DHT22;3415;51.148;7.014;2022-11-20T01:08:49;3.20;1.00
6756;DHT22;3415;51.148;7.014;2022-11-20T01:11:18;3.10;1.00
6756;DHT22;3415;51.148;7.014;2022-11-20T01:13:48;3.10;1.00
6756;DHT22;3415;51.148;7.014;2022-11-20T01:16:18;3.10;1.00
6756;DHT22;3415;51.148;7.014;2022-11-20T01:18:48;3.10;1.00
6756;DHT22;3415;51.148;7.014;2022-11-20T01:21:17;3.10;1.00
6756;DHT22;3415;51.148;7.014;2022-11-20T01:23:46;3.10;1.00
6756;DHT22;3415;51.148;7.014;2022-11-20T01:26:17;3.10;1.00
6756;DHT22;3415;51.148;7.014;2022-11-20T01:28:44;3.10;1.00
6756;DHT22;3415;51.148;7.014;2022-11-20T01:31:13;3.10;1.00
6756;DHT22;3415;51.148;7.014;2022-11-20T01:33:43;3.10;1.00
6756;DHT22;3415;51.148;7.014;2022-11-20T01:36:11;3.10;1.00
6756;DHT22;3415;51.148;7.014;2022-11-20T01:38:39;3.20;1.00
6756;DHT22;3415;51.148;7.014;2022-11-20T01:41:07;3.20;1.00
6756;DHT22;3415;51.148;7.014;2022-11-20T01:43:35;3.20;1.00
6756;DHT22;3415;51.148;7.014;2022-11-20T01:46:05;3.20;1.00
6756;DHT22;3415;51.148;7.014;2022-11-20T01:48:40;3.20;1.00
6756;DHT22;3415;51.148;7.014;2022-11-20T01:51:17;3.20;1.00
6756;DHT22;3415;51.148;7.014;2022-11-20T01:53:48;3.10;1.00
6756;DHT22;3415;51.148;7.014;2022-11-20T01:56:17;3.10;1.00
6756;DHT22;3415;51.148;7.014;2022-11-20T01:58:48;3.10;1.00
6756;DHT22;3415;51.148;7.014;2022-11-20T02:01:18;3.20;1.00
6756;DHT22;3415;51.148;7.014;2022-11-20T02:03:47;3.30;1.00
6756;DHT22;3415;51.148;7.014;2022-11-20T02:06:19;3.30;1.00
6756;DHT22;3415;51.148;7.014;2022-11-20T02:08:50;3.40;1.00
6756;DHT22;3415;51.148;7.014;2022-11-20T02:11:18;3.30;1.00
6756;DHT22;3415;51.148;7.014;2022-11-20T02:13:45;3.30;1.00
6756;DHT22;3415;51.148;7.014;2022-11-20T02:16:15;3.30;1.00
6756;DHT22;3415;51.148;7.014;2022-11-20T02:18:46;3.20;1.00
6756;DHT22;3415;51.148;7.014;2022-11-20T02:21:31;3.30;1.00
6756;DHT22;3415;51.148;7.014;2022-11-20T02:24:04;3.30;1.00
6756;DHT22;3415;51.148;7.014;2022-11-20T02:26:36;3.20;1.00
6756;DHT22;3415;51.148;7.014;2022-11-20T02:31:40;3.10;1.00
6756;DHT22;3415;51.148;7.014;2022-11-20T02:34:08;3.00;1.00
6756;DHT22;3415;51.148;7.014;2022-11-20T02:36:36;3.00;1.00
6756;DHT22;3415;51.148;7.014;2022-11-20T02:39:07;3.00;1.00
6756;DHT22;3415;51.148;7.014;2022-11-20T02:41:37;3.00;1.00
6756;DHT22;3415;51.148;7.014;2022-11-20T02:44:05;3.00;1.00
6756;DHT22;3415;51.148;7.014;2022-11-20T02:46:32;3.00;1.00
6756;DHT22;3415;51.148;7.014;2022-11-20T02:49:01;3.00;1.00
6756;DHT22;3415;51.148;7.014;2022-11-20T02:51:29;3.00;1.00
6756;DHT22;3415;51.148;7.014;2022-11-20T02:53:56;2.80;1.00
6756;DHT22;3415;51.148;7.014;2022-11-20T02:56:25;2.80;1.00
6756;DHT22;3415;51.148;7.014;2022-11-20T02:58:53;2.60;1.00
6756;DHT22;3415;51.148;7.014;2022-11-20T03:01:19;2.60;1.00
6756;DHT22;3415;51.148;7.014;2022-11-20T03:03:46;2.40;1.00
6756;DHT22;3415;51.148;7.014;2022-11-20T03:08:42;2.20;1.00
6756;DHT22;3415;51.148;7.014;2022-11-20T03:11:09;2.10;1.00
6756;DHT22;3415;51.148;7.014;2022-11-20T03:13:38;2.00;1.00
6756;DHT22;3415;51.148;7.014;2022-11-20T03:16:07;2.00;1.00
6756;DHT22;3415;51.148;7.014;2022-11-20T03:18:35;1.90;1.00
6756;DHT22;3415;51.148;7.014;2022-11-20T03:21:03;1.90;1.00
6756;DHT22;3415;51.148;7.014;2022-11-20T03:23:31;1.90;1.00
6756;DHT22;3415;51.148;7.014;2022-11-20T03:26:12;2.00;1.00
6756;DHT22;3415;51.148;7.014;2022-11-20T03:28:45;2.00;1.00
6756;DHT22;3415;51.148;7.014;2022-11-20T03:31:14;2.20;1.00
6756;DHT22;3415;51.148;7.014;2022-11-20T03:33:42;2.50;1.00
6756;DHT22;3415;51.148;7.014;2022-11-20T03:36:11;2.40;1.00
6756;DHT22;3415;51.148;7.014;2022-11-20T03:38:40;2.50;1.00
6756;DHT22;3415;51.148;7.014;2022-11-20T03:41:09;2.50;1.00
6756;DHT22;3415;51.148;7.014;2022-11-20T03:43:37;2.50;1.00
6756;DHT22;3415;51.148;7.014;2022-11-20T03:46:06;2.40;1.00
6756;DHT22;3415;51.148;7.014;2022-11-20T03:48:33;2.40;1.00
6756;DHT22;3415;51.148;7.014;2022-11-20T03:51:08;2.60;1.00
6756;DHT22;3415;51.148;7.014;2022-11-20T03:53:36;2.60;1.00
6756;DHT22;3415;51.148;7.014;2022-11-20T03:56:03;2.60;1.00
6756;DHT22;3415;51.148;7.014;2022-11-20T03:58:30;2.60;1.00
6756;DHT22;3415;51.148;7.014;2022-11-20T04:01:06;2.60;1.00
6756;DHT22;3415;51.148;7.014;2022-11-20T04:03:34;2.60;1.00
6756;DHT22;3415;51.148;7.014;2022-11-20T04:06:02;2.70;1.00
6756;DHT22;3415;51.148;7.014;2022-11-20T04:08:30;2.70;1.00
6756;DHT22;3415;51.148;7.014;2022-11-20T04:11:08;2.70;1.00
6756;DHT22;3415;51.148;7.014;2022-11-20T04:13:36;2.80;1.00
6756;DHT22;3415;51.148;7.014;2022-11-20T04:16:04;2.80;1.00
6756;DHT22;3415;51.148;7.014;2022-11-20T04:18:33;2.80;1.00
6756;DHT22;3415;51.148;7.014;2022-11-20T04:21:00;2.80;1.00
6756;DHT22;3415;51.148;7.014;2022-11-20T04:23:28;2.80;1.00
6756;DHT22;3415;51.148;7.014;2022-11-20T04:26:00;2.70;1.00
6756;DHT22;3415;51.148;7.014;2022-11-20T04:28:28;2.70;1.00
6756;DHT22;3415;51.148;7.014;2022-11-20T04:31:02;2.80;1.00
6756;DHT22;3415;51.148;7.014;2022-11-20T04:33:31;2.80;1.00
6756;DHT22;3415;51.148;7.014;2022-11-20T04:36:03;2.70;1.00
6756;DHT22;3415;51.148;7.014;2022-11-20T04:38:31;2.80;1.00
6756;DHT22;3415;51.148;7.014;2022-11-20T04:41:00;2.90;1.00
6756;DHT22;3415;51.148;7.014;2022-11-20T04:43:29;3.00;1.00
6756;DHT22;3415;51.148;7.014;2022-11-20T04:45:57;3.00;1.00
6756;DHT22;3415;51.148;7.014;2022-11-20T04:48:26;2.90;1.00
6756;DHT22;3415;51.148;7.014;2022-11-20T04:50:55;3.00;1.00
6756;DHT22;3415;51.148;7.014;2022-11-20T04:53:22;3.00;1.00
6756;DHT22;3415;51.148;7.014;2022-11-20T04:55:50;2.90;1.00
6756;DHT22;3415;51.148;7.014;2022-11-20T04:58:17;2.90;1.00
6756;DHT22;3415;51.148;7.014;2022-11-20T05:00:44;2.90;1.00
6756;DHT22;3415;51.148;7.014;2022-11-20T05:03:11;2.90;1.00
6756;DHT22;3415;51.148;7.014;2022-11-20T05:08:07;2.90;1.00
6756;DHT22;3415;51.148;7.014;2022-11-20T05:10:33;2.90;1.00
6756;DHT22;3415;51.148;7.014;2022-11-20T05:13:00;2.90;1.00
6756;DHT22;3415;51.148;7.014;2022-11-20T05:15:27;2.90;1.00
6756;DHT22;3415;51.148;7.014;2022-11-20T05:17:54;2.90;1.00
6756;DHT22;3415;51.148;7.014;2022-11-20T05:22:48;2.90;1.00
6756;DHT22;3415;51.148;7.014;2022-11-20T05:25:17;2.90;1.00
6756;DHT22;3415;51.148;7.014;2022-11-20T05:27:44;3.10;1.00
6756;DHT22;3415;51.148;7.014;2022-11-20T05:30:13;2.90;1.00
6756;DHT22;3415;51.148;7.014;2022-11-20T05:32:40;2.90;1.00
6756;DHT22;3415;51.148;7.014;2022-11-20T05:35:08;2.90;1.00
6756;DHT22;3415;51.148;7.014;2022-11-20T05:37:34;3.00;1.00
6756;DHT22;3415;51.148;7.014;2022-11-20T05:40:02;3.00;1.00
6756;DHT22;3415;51.148;7.014;2022-11-20T05:42:31;3.10;1.00
6756;DHT22;3415;51.148;7.014;2022-11-20T05:44:59;3.00;1.00
6756;DHT22;3415;51.148;7.014;2022-11-20T05:47:28;3.00;1.00
6756;DHT22;3415;51.148;7.014;2022-11-20T05:49:57;3.00;1.00
6756;DHT22;3415;51.148;7.014;2022-11-20T05:52:24;3.10;1.00
6756;DHT22;3415;51.148;7.014;2022-11-20T05:54:51;3.00;1.00
6756;DHT22;3415;51.148;7.014;2022-11-20T05:57:18;2.90;1.00
6756;DHT22;3415;51.148;7.014;2022-11-20T05:59:46;3.00;1.00
6756;DHT22;3415;51.148;7.014;2022-11-20T06:02:13;3.00;1.00
6756;DHT22;3415;51.148;7.014;2022-11-20T06:04:40;3.00;1.00
6756;DHT22;3415;51.148;7.014;2022-11-20T06:07:07;3.10;1.00
6756;DHT22;3415;51.148;7.014;2022-11-20T06:09:34;3.10;1.00
6756;DHT22;3415;51.148;7.014;2022-11-20T06:12:01;3.00;1.00
6756;DHT22;3415;51.148;7.014;2022-11-20T06:14:28;3.10;1.00
6756;DHT22;3415;51.148;7.014;2022-11-20T06:16:57;3.00;1.00
6756;DHT22;3415;51.148;7.014;2022-11-20T06:19:23;3.10;1.00
6756;DHT22;3415;51.148;7.014;2022-11-20T06:21:51;3.00;1.00
6756;DHT22;3415;51.148;7.014;2022-11-20T06:24:18;3.00;1.00
6756;DHT22;3415;51.148;7.014;2022-11-20T06:26:45;3.00;1.00
6756;DHT22;3415;51.148;7.014;2022-11-20T06:29:12;3.00;1.00
6756;DHT22;3415;51.148;7.014;2022-11-20T06:31:39;2.90;1.00
6756;DHT22;3415;51.148;7.014;2022-11-20T06:34:09;2.90;1.00
6756;DHT22;3415;51.148;7.014;2022-11-20T06:36:36;2.90;1.00
6756;DHT22;3415;51.148;7.014;2022-11-20T06:39:03;2.90;1.00
6756;DHT22;3415;51.148;7.014;2022-11-20T06:41:30;2.90;1.00
6756;DHT22;3415;51.148;7.014;2022-11-20T06:43:57;2.90;1.00
6756;DHT22;3415;51.148;7.014;2022-11-20T06:46:24;2.80;1.00
6756;DHT22;3415;51.148;7.014;2022-11-20T06:48:51;2.80;1.00
6756;DHT22;3415;51.148;7.014;2022-11-20T06:51:19;2.80;1.00
6756;DHT22;3415;51.148;7.014;2022-11-20T06:53:47;2.60;1.00
6756;DHT22;3415;51.148;7.014;2022-11-20T06:56:14;2.60;1.00
6756;DHT22;3415;51.148;7.014;2022-11-20T06:58:41;2.40;1.00
6756;DHT22;3415;51.148;7.014;2022-11-20T07:01:10;2.40;1.00
6756;DHT22;3415;51.148;7.014;2022-11-20T07:03:39;2.20;1.00
6756;DHT22;3415;51.148;7.014;2022-11-20T07:06:07;2.10;1.00
6756;DHT22;3415;51.148;7.014;2022-11-20T07:08:36;2.10;1.00
6756;DHT22;3415;51.148;7.014;2022-11-20T07:11:05;1.90;1.00
6756;DHT22;3415;51.148;7.014;2022-11-20T07:13:33;1.80;1.00
6756;DHT22;3415;51.148;7.014;2022-11-20T07:16:02;1.80;1.00
6756;DHT22;3415;51.148;7.014;2022-11-20T07:18:31;1.70;1.00
6756;DHT22;3415;51.148;7.014;2022-11-20T07:21:00;1.70;1.00
6756;DHT22;3415;51.148;7.014;2022-11-20T07:23:27;1.70;1.00
6756;DHT22;3415;51.148;7.014;2022-11-20T07:25:55;1.70;1.00
6756;DHT22;3415;51.148;7.014;2022-11-20T07:28:22;1.80;1.00
6756;DHT22;3415;51.148;7.014;2022-11-20T07:30:50;1.90;1.00
6756;DHT22;3415;51.148;7.014;2022-11-20T07:33:17;1.90;1.00
6756;DHT22;3415;51.148;7.014;2022-11-20T07:35:44;2.00;1.00
6756;DHT22;3415;51.148;7.014;2022-11-20T07:38:11;2.20;1.00
6756;DHT22;3415;51.148;7.014;2022-11-20T07:40:38;2.40;1.00
6756;DHT22;3415;51.148;7.014;2022-11-20T07:43:07;2.40;1.00
6756;DHT22;3415;51.148;7.014;2022-11-20T07:45:33;2.50;1.00
6756;DHT22;3415;51.148;7.014;2022-11-20T07:48:00;2.60;1.00
6756;DHT22;3415;51.148;7.014;2022-11-20T07:50:27;2.60;1.00
6756;DHT22;3415;51.148;7.014;2022-11-20T07:53:00;2.70;1.00
6756;DHT22;3415;51.148;7.014;2022-11-20T07:55:29;2.70;1.00
6756;DHT22;3415;51.148;7.014;2022-11-20T07:57:56;2.70;1.00
6756;DHT22;3415;51.148;7.014;2022-11-20T08:00:25;2.70;1.00
6756;DHT22;3415;51.148;7.014;2022-11-20T08:02:53;3.00;1.00
6756;DHT22;3415;51.148;7.014;2022-11-20T08:05:20;3.10;1.00
6756;DHT22;3415;51.148;7.014;2022-11-20T08:07:47;3.50;1.00
6756;DHT22;3415;51.148;7.014;2022-11-20T08:10:15;3.80;1.00
6756;DHT22;3415;51.148;7.014;2022-11-20T08:12:46;5.00;1.00
6756;DHT22;3415;51.148;7.014;2022-11-20T08:15:33;5.10;1.00
6756;DHT22;3415;51.148;7.014;2022-11-20T08:18:02;5.10;1.00
6756;DHT22;3415;51.148;7.014;2022-11-20T08:20:30;4.70;1.00
6756;DHT22;3415;51.148;7.014;2022-11-20T08:23:00;4.60;1.00
6756;DHT22;3415;51.148;7.014;2022-11-20T08:25:28;4.90;1.00
6756;DHT22;3415;51.148;7.014;2022-11-20T08:27:57;4.80;1.00
6756;DHT22;3415;51.148;7.014;2022-11-20T08:30:25;4.50;1.00
6756;DHT22;3415;51.148;7.014;2022-11-20T08:32:54;4.40;1.00
6756;DHT22;3415;51.148;7.014;2022-11-20T08:35:21;4.20;1.00
6756;DHT22;3415;51.148;7.014;2022-11-20T08:40:16;3.90;1.00
6756;DHT22;3415;51.148;7.014;2022-11-20T08:42:46;3.90;1.00
6756;DHT22;3415;51.148;7.014;2022-11-20T08:45:14;3.90;1.00
6756;DHT22;3415;51.148;7.014;2022-11-20T08:47:41;3.70;1.00
6756;DHT22;3415;51.148;7.014;2022-11-20T08:50:10;3.70;1.00
6756;DHT22;3415;51.148;7.014;2022-11-20T08:52:38;3.80;1.00
6756;DHT22;3415;51.148;7.014;2022-11-20T08:55:06;3.80;1.00
6756;DHT22;3415;51.148;7.014;2022-11-20T08:57:35;4.20;1.00
6756;DHT22;3415;51.148;7.014;2022-11-20T09:00:04;4.20;1.00
6756;DHT22;3415;51.148;7.014;2022-11-20T09:02:33;4.20;1.00
6756;DHT22;3415;51.148;7.014;2022-11-20T09:05:00;4.20;1.00
6756;DHT22;3415;51.148;7.014;2022-11-20T09:07:29;4.20;1.00
6756;DHT22;3415;51.148;7.014;2022-11-20T09:09:56;4.20;1.00
6756;DHT22;3415;51.148;7.014;2022-11-20T09:12:24;4.10;1.00
6756;DHT22;3415;51.148;7.014;2022-11-20T09:17:18;3.80;1.00
6756;DHT22;3415;51.148;7.014;2022-11-20T09:19:46;3.80;1.00
6756;DHT22;3415;51.148;7.014;2022-11-20T09:24:42;3.80;1.00
6756;DHT22;3415;51.148;7.014;2022-11-20T09:27:09;3.80;1.00
6756;DHT22;3415;51.148;7.014;2022-11-20T09:32:04;3.90;1.00
6756;DHT22;3415;51.148;7.014;2022-11-20T09:34:31;3.80;1.00
6756;DHT22;3415;51.148;7.014;2022-11-20T09:36:58;3.70;1.00
6756;DHT22;3415;51.148;7.014;2022-11-20T09:39:25;3.80;1.00
6756;DHT22;3415;51.148;7.014;2022-11-20T09:42:12;3.80;1.00
6756;DHT22;3415;51.148;7.014;2022-11-20T09:45:05;3.80;1.00
6756;DHT22;3415;51.148;7.014;2022-11-20T09:47:52;3.70;1.00
6756;DHT22;3415;51.148;7.014;2022-11-20T09:50:31;4.10;1.00
6756;DHT22;3415;51.148;7.014;2022-11-20T09:53:11;4.10;1.00
6756;DHT22;3415;51.148;7.014;2022-11-20T09:55:39;4.70;1.00
6756;DHT22;3415;51.148;7.014;2022-11-20T09:58:15;4.70;1.00
6756;DHT22;3415;51.148;7.014;2022-11-20T10:00:44;5.00;1.00
6756;DHT22;3415;51.148;7.014;2022-11-20T10:03:16;4.90;1.00
6756;DHT22;3415;51.148;7.014;2022-11-20T10:05:47;5.00;1.00
6756;DHT22;3415;51.148;7.014;2022-11-20T10:08:17;5.00;1.00
6756;DHT22;3415;51.148;7.014;2022-11-20T10:10:49;5.10;1.00
6756;DHT22;3415;51.148;7.014;2022-11-20T10:13:31;5.00;1.00
6756;DHT22;3415;51.148;7.014;2022-11-20T10:16:14;4.90;1.00
6756;DHT22;3415;51.148;7.014;2022-11-20T10:18:58;5.00;1.00
6756;DHT22;3415;51.148;7.014;2022-11-20T10:21:41;5.20;1.00
6756;DHT22;3415;51.148;7.014;2022-11-20T10:24:35;5.20;1.00
6756;DHT22;3415;51.148;7.014;2022-11-20T10:27:22;5.30;1.00
6756;DHT22;3415;51.148;7.014;2022-11-20T10:30:10;5.30;1.00
6756;DHT22;3415;51.148;7.014;2022-11-20T10:32:40;4.90;1.00
6756;DHT22;3415;51.148;7.014;2022-11-20T10:35:19;4.90;1.00
6756;DHT22;3415;51.148;7.014;2022-11-20T10:37:51;4.80;1.00
6756;DHT22;3415;51.148;7.014;2022-11-20T10:40:25;4.50;1.00
6756;DHT22;3415;51.148;7.014;2022-11-20T10:42:57;4.50;1.00
6756;DHT22;3415;51.148;7.014;2022-11-20T10:45:44;4.30;1.00
6756;DHT22;3415;51.148;7.014;2022-11-20T10:48:20;4.30;1.00
6756;DHT22;3415;51.148;7.014;2022-11-20T10:51:11;4.40;1.00
6756;DHT22;3415;51.148;7.014;2022-11-20T10:53:51;4.40;1.00
6756;DHT22;3415;51.148;7.014;2022-11-20T10:56:31;4.40;1.00
6756;DHT22;3415;51.148;7.014;2022-11-20T10:59:32;4.40;1.00
6756;DHT22;3415;51.148;7.014;2022-11-20T11:02:17;4.50;1.00
6756;DHT22;3415;51.148;7.014;2022-11-20T11:04:47;4.70;1.00
6756;DHT22;3415;51.148;7.014;2022-11-20T11:07:19;4.70;1.00
6756;DHT22;3415;51.148;7.014;2022-11-20T11:09:50;4.70;1.00
6756;DHT22;3415;51.148;7.014;2022-11-20T11:12:20;4.60;1.00
6756;DHT22;3415;51.148;7.014;2022-11-20T11:14:49;4.50;1.00
6756;DHT22;3415;51.148;7.014;2022-11-20T11:17:27;4.50;1.00
6756;DHT22;3415;51.148;7.014;2022-11-20T11:19:59;4.50;1.00
6756;DHT22;3415;51.148;7.014;2022-11-20T11:22:29;4.60;1.00
6756;DHT22;3415;51.148;7.014;2022-11-20T11:24:57;4.60;1.00
6756;DHT22;3415;51.148;7.014;2022-11-20T11:27:25;4.70;1.00
6756;DHT22;3415;51.148;7.014;2022-11-20T11:30:03;4.70;1.00
6756;DHT22;3415;51.148;7.014;2022-11-20T11:32:40;4.70;1.00
6756;DHT22;3415;51.148;7.014;2022-11-20T11:35:20;4.70;1.00
6756;DHT22;3415;51.148;7.014;2022-11-20T11:37:49;4.80;1.00
6756;DHT22;3415;51.148;7.014;2022-11-20T11:40:20;4.80;1.00
6756;DHT22;3415;51.148;7.014;2022-11-20T11:42:54;4.70;1.00
6756;DHT22;3415;51.148;7.014;2022-11-20T11:45:22;4.70;1.00
6756;DHT22;3415;51.148;7.014;2022-11-20T11:47:51;4.70;1.00
6756;DHT22;3415;51.148;7.014;2022-11-20T11:50:21;4.60;1.00
6756;DHT22;3415;51.148;7.014;2022-11-20T11:52:56;4.80;1.00
6756;DHT22;3415;51.148;7.014;2022-11-20T11:55:31;4.80;1.00
6756;DHT22;3415;51.148;7.014;2022-11-20T11:58:09;5.10;1.00
6756;DHT22;3415;51.148;7.014;2022-11-20T12:00:47;5.10;1.00
6756;DHT22;3415;51.148;7.014;2022-11-20T12:03:23;5.10;1.00
6756;DHT22;3415;51.148;7.014;2022-11-20T12:05:57;5.20;1.00
6756;DHT22;3415;51.148;7.014;2022-11-20T12:08:30;5.20;1.00
6756;DHT22;3415;51.148;7.014;2022-11-20T12:11:04;5.20;1.00
6756;DHT22;3415;51.148;7.014;2022-11-20T12:13:41;5.20;1.00
6756;DHT22;3415;51.148;7.014;2022-11-20T12:16:12;5.20;1.00
6756;DHT22;3415;51.148;7.014;2022-11-20T12:18:42;5.20;1.00
6756;DHT22;3415;51.148;7.014;2022-11-20T12:21:22;5.30;1.00
6756;DHT22;3415;51.148;7.014;2022-11-20T12:24:15;5.30;1.00
6756;DHT22;3415;51.148;7.014;2022-11-20T12:27:05;5.30;1.00
6756;DHT22;3415;51.148;7.014;2022-11-20T12:29:47;5.20;1.00
6756;DHT22;3415;51.148;7.014;2022-11-20T12:32:39;5.50;1.00
6756;DHT22;3415;51.148;7.014;2022-11-20T12:35:29;5.30;1.00
6756;DHT22;3415;51.148;7.014;2022-11-20T12:38:18;5.40;1.00
6756;DHT22;3415;51.148;7.014;2022-11-20T12:41:02;5.40;1.00
6756;DHT22;3415;51.148;7.014;2022-11-20T12:43:35;5.50;1.00
6756;DHT22;3415;51.148;7.014;2022-11-20T12:46:36;5.20;1.00
6756;DHT22;3415;51.148;7.014;2022-11-20T12:49:29;5.20;1.00
6756;DHT22;3415;51.148;7.014;2022-11-20T12:52:22;5.30;1.00
6756;DHT22;3415;51.148;7.014;2022-11-20T12:55:20;5.30;1.00
6756;DHT22;3415;51.148;7.014;2022-11-20T12:57:57;5.30;1.00
6756;DHT22;3415;51.148;7.014;2022-11-20T13:00:25;5.20;1.00
6756;DHT22;3415;51.148;7.014;2022-11-20T13:03:13;5.20;1.00
6756;DHT22;3415;51.148;7.014;2022-11-20T13:05:55;5.10;1.00
6756;DHT22;3415;51.148;7.014;2022-11-20T13:08:32;5.30;1.00
6756;DHT22;3415;51.148;7.014;2022-11-20T13:11:07;5.20;1.00
6756;DHT22;3415;51.148;7.014;2022-11-20T13:13:45;5.20;1.00
6756;DHT22;3415;51.148;7.014;2022-11-20T13:16:26;5.20;1.00
6756;DHT22;3415;51.148;7.014;2022-11-20T13:19:01;5.20;1.00
6756;DHT22;3415;51.148;7.014;2022-11-20T13:21:36;5.20;1.00
6756;DHT22;3415;51.148;7.014;2022-11-20T13:24:19;5.30;1.00
6756;DHT22;3415;51.148;7.014;2022-11-20T13:27:00;5.10;1.00
6756;DHT22;3415;51.148;7.014;2022-11-20T13:29:32;5.20;1.00
6756;DHT22;3415;51.148;7.014;2022-11-20T13:32:06;5.30;1.00
6756;DHT22;3415;51.148;7.014;2022-11-20T13:34:38;5.40;1.00
6756;DHT22;3415;51.148;7.014;2022-11-20T13:37:25;5.30;1.00
6756;DHT22;3415;51.148;7.014;2022-11-20T13:40:13;5.30;1.00
6756;DHT22;3415;51.148;7.014;2022-11-20T13:42:55;5.30;1.00
6756;DHT22;3415;51.148;7.014;2022-11-20T13:45:30;5.30;1.00
6756;DHT22;3415;51.148;7.014;2022-11-20T13:48:03;5.30;1.00
6756;DHT22;3415;51.148;7.014;2022-11-20T13:50:42;5.30;1.00
6756;DHT22;3415;51.148;7.014;2022-11-20T13:53:29;5.20;1.00
6756;DHT22;3415;51.148;7.014;2022-11-20T13:56:23;5.30;1.00
6756;DHT22;3415;51.148;7.014;2022-11-20T13:59:02;5.30;1.00
6756;DHT22;3415;51.148;7.014;2022-11-20T14:01:33;5.30;1.00
6756;DHT22;3415;51.148;7.014;2022-11-20T14:04:05;5.40;1.00
6756;DHT22;3415;51.148;7.014;2022-11-20T14:06:39;5.40;1.00
6756;DHT22;3415;51.148;7.014;2022-11-20T14:09:11;5.40;1.00
6756;DHT22;3415;51.148;7.014;2022-11-20T14:11:47;5.40;1.00
6756;DHT22;3415;51.148;7.014;2022-11-20T14:14:16;5.30;1.00
6756;DHT22;3415;51.148;7.014;2022-11-20T14:16:45;5.30;1.00
6756;DHT22;3415;51.148;7.014;2022-11-20T14:19:28;5.40;1.00
6756;DHT22;3415;51.148;7.014;2022-11-20T14:22:17;5.40;1.00
6756;DHT22;3415;51.148;7.014;2022-11-20T14:24:45;5.40;1.00
6756;DHT22;3415;51.148;7.014;2022-11-20T14:27:19;5.40;1.00
6756;DHT22;3415;51.148;7.014;2022-11-20T14:29:49;5.30;1.00
6756;DHT22;3415;51.148;7.014;2022-11-20T14:32:17;5.60;1.00
6756;DHT22;3415;51.148;7.014;2022-11-20T14:34:48;5.40;1.00
6756;DHT22;3415;51.148;7.014;2022-11-20T14:37:20;5.40;1.00
6756;DHT22;3415;51.148;7.014;2022-11-20T14:39:51;5.30;1.00
6756;DHT22;3415;51.148;7.014;2022-11-20T14:42:22;5.30;1.00
6756;DHT22;3415;51.148;7.014;2022-11-20T14:44:52;5.30;1.00
6756;DHT22;3415;51.148;7.014;2022-11-20T14:47:24;5.30;1.00
6756;DHT22;3415;51.148;7.014;2022-11-20T14:49:54;5.40;1.00
6756;DHT22;3415;51.148;7.014;2022-11-20T14:52:23;5.40;1.00
6756;DHT22;3415;51.148;7.014;2022-11-20T14:54:52;5.40;1.00
6756;DHT22;3415;51.148;7.014;2022-11-20T14:57:24;5.40;1.00
6756;DHT22;3415;51.148;7.014;2022-11-20T15:00:08;5.40;1.00
6756;DHT22;3415;51.148;7.014;2022-11-20T15:02:47;5.50;1.00
6756;DHT22;3415;51.148;7.014;2022-11-20T15:05:17;5.40;1.00
6756;DHT22;3415;51.148;7.014;2022-11-20T15:07:46;5.40;1.00
6756;DHT22;3415;51.148;7.014;2022-11-20T15:10:21;5.40;1.00
6756;DHT22;3415;51.148;7.014;2022-11-20T15:12:51;5.40;1.00
6756;DHT22;3415;51.148;7.014;2022-11-20T15:15:24;5.40;1.00
6756;DHT22;3415;51.148;7.014;2022-11-20T15:17:56;5.40;1.00
6756;DHT22;3415;51.148;7.014;2022-11-20T15:20:26;5.30;1.00
6756;DHT22;3415;51.148;7.014;2022-11-20T15:22:54;5.30;1.00
6756;DHT22;3415;51.148;7.014;2022-11-20T15:25:21;5.30;1.00
6756;DHT22;3415;51.148;7.014;2022-11-20T15:27:53;5.30;1.00
6756;DHT22;3415;51.148;7.014;2022-11-20T15:30:22;5.30;1.00
6756;DHT22;3415;51.148;7.014;2022-11-20T15:35:17;5.30;1.00
6756;DHT22;3415;51.148;7.014;2022-11-20T15:37:44;5.50;1.00
6756;DHT22;3415;51.148;7.014;2022-11-20T15:40:11;5.30;1.00
6756;DHT22;3415;51.148;7.014;2022-11-20T15:42:38;5.30;1.00
6756;DHT22;3415;51.148;7.014;2022-11-20T15:45:29;5.30;1.00
6756;DHT22;3415;51.148;7.014;2022-11-20T15:48:00;5.20;1.00
6756;DHT22;3415;51.148;7.014;2022-11-20T15:50:34;5.10;1.00
6756;DHT22;3415;51.148;7.014;2022-11-20T15:55:31;5.00;1.00
6756;DHT22;3415;51.148;7.014;2022-11-20T15:57:58;5.10;1.00
6756;DHT22;3415;51.148;7.014;2022-11-20T16:00:28;5.10;1.00
6756;DHT22;3415;51.148;7.014;2022-11-20T16:02:55;5.10;1.00
6756;DHT22;3415;51.148;7.014;2022-11-20T16:05:22;5.10;1.00
6756;DHT22;3415;51.148;7.014;2022-11-20T16:07:50;5.10;1.00
6756;DHT22;3415;51.148;7.014;2022-11-20T16:10:17;5.10;1.00
6756;DHT22;3415;51.148;7.014;2022-11-20T16:12:44;5.10;1.00
6756;DHT22;3415;51.148;7.014;2022-11-20T16:15:30;5.10;1.00
6756;DHT22;3415;51.148;7.014;2022-11-20T16:18:16;5.10;1.00
6756;DHT22;3415;51.148;7.014;2022-11-20T16:20:45;5.10;1.00
6756;DHT22;3415;51.148;7.014;2022-11-20T16:23:13;5.10;1.00
6756;DHT22;3415;51.148;7.014;2022-11-20T16:28:08;5.20;1.00
6756;DHT22;3415;51.148;7.014;2022-11-20T16:30:37;5.10;1.00
6756;DHT22;3415;51.148;7.014;2022-11-20T16:33:09;5.20;1.00
6756;DHT22;3415;51.148;7.014;2022-11-20T16:35:37;5.30;1.00
6756;DHT22;3415;51.148;7.014;2022-11-20T16:38:04;5.30;1.00
6756;DHT22;3415;51.148;7.014;2022-11-20T16:40:31;5.20;1.00
6756;DHT22;3415;51.148;7.014;2022-11-20T16:43:07;5.30;1.00
6756;DHT22;3415;51.148;7.014;2022-11-20T16:45:41;5.40;1.00
6756;DHT22;3415;51.148;7.014;2022-11-20T16:48:12;5.20;1.00
6756;DHT22;3415;51.148;7.014;2022-11-20T16:50:45;5.40;1.00
6756;DHT22;3415;51.148;7.014;2022-11-20T16:53:14;5.40;1.00
6756;DHT22;3415;51.148;7.014;2022-11-20T16:55:41;5.40;1.00
6756;DHT22;3415;51.148;7.014;2022-11-20T16:58:08;5.60;1.00
6756;DHT22;3415;51.148;7.014;2022-11-20T17:00:36;5.50;1.00
6756;DHT22;3415;51.148;7.014;2022-11-20T17:03:05;5.50;1.00
6756;DHT22;3415;51.148;7.014;2022-11-20T17:05:34;5.50;1.00
6756;DHT22;3415;51.148;7.014;2022-11-20T17:08:01;5.70;1.00
6756;DHT22;3415;51.148;7.014;2022-11-20T17:10:28;5.50;1.00
6756;DHT22;3415;51.148;7.014;2022-11-20T17:12:55;5.50;1.00
6756;DHT22;3415;51.148;7.014;2022-11-20T17:15:22;5.50;1.00
6756;DHT22;3415;51.148;7.014;2022-11-20T17:17:49;5.50;12.10
6756;DHT22;3415;51.148;7.014;2022-11-20T17:20:18;5.60;39.80
6756;DHT22;3415;51.148;7.014;2022-11-20T17:25:12;5.60;75.40
6756;DHT22;3415;51.148;7.014;2022-11-20T17:27:39;5.60;99.90
6756;DHT22;3415;51.148;7.014;2022-11-20T17:30:07;5.60;99.90
6756;DHT22;3415;51.148;7.014;2022-11-20T17:32:34;5.70;99.90
6756;DHT22;3415;51.148;7.014;2022-11-20T17:35:01;5.60;99.90